• Join FlightAware (Why Join?)
  • Login
  • US Flag 
10:14PM EDT


 

Airport Tracker/Info


-or-


 

Live Flight TrackerFlight Track Log ✈ EGF4269 ✈ 21-Apr-2013 ✈ KORD - KAZO

Flight Track Log - Related Links

Times and Time Zones

All times are in EDT time to prevent confusion due to time zone crossing. See the EGF4269 flight status page for this flight to view local times or setup timezone preferences in your user account.

Time Position Orientation Groundspeed Altitude Reporting Facility
EDT Latitude Longitude Course Direction KTS MPH feet Rate Location/Type
10:34PM 41.9833 -87.8500 77° East 170 196 2,600  Level Chicago TRACON
10:36PM 42.0361 -87.5197 83° East  Level FlightAware Approximate
10:36PM 41.9917 -87.7003 86° East 237 273 6,300  Level Chicago Center
10:37PM 42.0481 -87.3876 83° East  Level FlightAware Approximate
10:37PM 42.0069 -87.5953 79° East 280 322 9,000  Level Chicago Center
10:38PM 42.0669 -87.2571 78° East  Level FlightAware Approximate
10:38PM 42.0300 -87.4900 74° East 291 335 11,300  Level Chicago Center
10:39PM 42.0872 -87.1268 77° East  Level FlightAware Approximate
10:39PM 42.0539 -87.3708 75° East 330 380 12,100  Level Chicago Center
10:40PM 42.0806 -87.2339 75° East 381 438 12,800 1,020 Climbing Chicago Center
10:41PM 42.1069 -87.0931 76° East 390 449 14,200 1,200 Climbing Chicago Center
10:42PM 42.1208 -86.9506 82° East 388 447 15,300 1,020 Climbing Chicago Center
10:43PM 42.1239 -86.8003 88° East 397 457 16,300 780 Climbing Chicago Center
10:44PM 42.1281 -86.6444 88° East 411 473 17,000 -180 Climbing Chicago Center
10:45PM 42.1333 -86.4903 87° East 413 475 16,000 -1,920 Descending Chicago Center
10:46PM 42.1383 -86.3156 88° East 392 451 13,100 -2,700 Descending Chicago Center
10:47PM 42.1431 -86.1775 87° East 372 428 10,600 -1,560 Descending Chicago Center
10:48PM 42.1556 -86.0586 82° East 321 369 10,000 -1,680 Descending Chicago Center
10:49PM 42.1819 -85.9647 69° East 276 318 7,300 -2,820 Descending Chicago Center
10:50PM 42.2106 -85.8725 67° East 268 308 4,300 -2,340 Descending Chicago Center
10:51PM 42.2447 -85.7892 61° Northeast 260 299 2,600 -900 Descending Chicago Center
10:52PM 42.2714 -85.7164 64° Northeast 230 265 2,500 -60 Descending Chicago Center
10:53PM 42.2886 -85.6417 73° East 200 230 2,500  Level Chicago Center